sensor_id;sensor_type;location;lat;lon;timestamp;temperature;humidity
19359;DHT22;9815;52.334;20.890;2022-08-27T00:00:49;18.80;99.90
19359;DHT22;9815;52.334;20.890;2022-08-27T00:03:17;18.80;99.90
19359;DHT22;9815;52.334;20.890;2022-08-27T00:05:45;18.80;99.90
19359;DHT22;9815;52.334;20.890;2022-08-27T00:08:14;18.80;99.90
19359;DHT22;9815;52.334;20.890;2022-08-27T00:10:43;18.80;99.90
19359;DHT22;9815;52.334;20.890;2022-08-27T00:13:11;18.70;99.90
19359;DHT22;9815;52.334;20.890;2022-08-27T00:15:41;18.60;99.90
19359;DHT22;9815;52.334;20.890;2022-08-27T00:18:09;18.60;99.90
19359;DHT22;9815;52.334;20.890;2022-08-27T00:20:38;18.50;99.90
19359;DHT22;9815;52.334;20.890;2022-08-27T00:23:06;18.50;99.90
19359;DHT22;9815;52.334;20.890;2022-08-27T00:25:34;18.50;99.90
19359;DHT22;9815;52.334;20.890;2022-08-27T00:28:03;18.40;99.90
19359;DHT22;9815;52.334;20.890;2022-08-27T00:30:32;18.40;99.90
19359;DHT22;9815;52.334;20.890;2022-08-27T00:33:01;18.30;99.90
19359;DHT22;9815;52.334;20.890;2022-08-27T00:35:30;18.30;99.90
19359;DHT22;9815;52.334;20.890;2022-08-27T00:38:00;18.30;99.90
19359;DHT22;9815;52.334;20.890;2022-08-27T00:40:28;18.30;99.90
19359;DHT22;9815;52.334;20.890;2022-08-27T00:42:57;18.30;99.90
19359;DHT22;9815;52.334;20.890;2022-08-27T00:45:28;18.30;99.90
19359;DHT22;9815;52.334;20.890;2022-08-27T00:48:01;18.30;99.90
19359;DHT22;9815;52.334;20.890;2022-08-27T00:50:32;18.30;99.90
19359;DHT22;9815;52.334;20.890;2022-08-27T00:53:04;18.30;99.90
19359;DHT22;9815;52.334;20.890;2022-08-27T00:55:37;18.30;99.90
19359;DHT22;9815;52.334;20.890;2022-08-27T00:58:10;18.30;99.90
19359;DHT22;9815;52.334;20.890;2022-08-27T01:00:41;18.30;99.90
19359;DHT22;9815;52.334;20.890;2022-08-27T01:03:12;18.30;99.90
19359;DHT22;9815;52.334;20.890;2022-08-27T01:05:42;18.30;99.90
19359;DHT22;9815;52.334;20.890;2022-08-27T01:08:13;18.30;99.90
19359;DHT22;9815;52.334;20.890;2022-08-27T01:10:44;18.20;99.90
19359;DHT22;9815;52.334;20.890;2022-08-27T01:13:16;18.20;99.90
19359;DHT22;9815;52.334;20.890;2022-08-27T01:15:46;18.20;99.90
19359;DHT22;9815;52.334;20.890;2022-08-27T01:18:16;18.20;99.90
19359;DHT22;9815;52.334;20.890;2022-08-27T01:20:50;18.20;99.90
19359;DHT22;9815;52.334;20.890;2022-08-27T01:23:26;18.20;99.90
19359;DHT22;9815;52.334;20.890;2022-08-27T01:25:58;18.20;99.90
19359;DHT22;9815;52.334;20.890;2022-08-27T01:28:28;18.20;99.90
19359;DHT22;9815;52.334;20.890;2022-08-27T01:31:05;18.10;99.90
19359;DHT22;9815;52.334;20.890;2022-08-27T01:33:34;18.20;99.90
19359;DHT22;9815;52.334;20.890;2022-08-27T01:36:03;18.10;99.90
19359;DHT22;9815;52.334;20.890;2022-08-27T01:38:32;18.10;99.90
19359;DHT22;9815;52.334;20.890;2022-08-27T01:41:03;18.00;99.90
19359;DHT22;9815;52.334;20.890;2022-08-27T01:43:32;18.00;99.90
19359;DHT22;9815;52.334;20.890;2022-08-27T01:46:00;17.90;99.90
19359;DHT22;9815;52.334;20.890;2022-08-27T01:48:28;18.00;99.90
19359;DHT22;9815;52.334;20.890;2022-08-27T01:50:56;17.90;99.90
19359;DHT22;9815;52.334;20.890;2022-08-27T01:53:26;17.90;99.90
19359;DHT22;9815;52.334;20.890;2022-08-27T01:55:54;17.80;99.90
19359;DHT22;9815;52.334;20.890;2022-08-27T01:58:26;17.80;99.90
19359;DHT22;9815;52.334;20.890;2022-08-27T02:00:57;17.80;99.90
19359;DHT22;9815;52.334;20.890;2022-08-27T02:03:26;17.80;99.90
19359;DHT22;9815;52.334;20.890;2022-08-27T02:05:54;17.80;99.90
19359;DHT22;9815;52.334;20.890;2022-08-27T02:08:22;17.80;99.90
19359;DHT22;9815;52.334;20.890;2022-08-27T02:10:51;17.80;99.90
19359;DHT22;9815;52.334;20.890;2022-08-27T02:13:19;17.80;99.90
19359;DHT22;9815;52.334;20.890;2022-08-27T02:15:49;17.80;99.90
19359;DHT22;9815;52.334;20.890;2022-08-27T02:18:17;17.70;99.90
19359;DHT22;9815;52.334;20.890;2022-08-27T02:20:46;17.70;99.90
19359;DHT22;9815;52.334;20.890;2022-08-27T02:23:15;17.70;99.90
19359;DHT22;9815;52.334;20.890;2022-08-27T02:25:44;17.70;99.90
19359;DHT22;9815;52.334;20.890;2022-08-27T02:28:13;17.60;99.90
19359;DHT22;9815;52.334;20.890;2022-08-27T02:30:42;17.60;99.90
19359;DHT22;9815;52.334;20.890;2022-08-27T02:33:11;17.60;99.90
19359;DHT22;9815;52.334;20.890;2022-08-27T02:35:40;17.60;99.90
19359;DHT22;9815;52.334;20.890;2022-08-27T02:38:10;17.50;99.90
19359;DHT22;9815;52.334;20.890;2022-08-27T02:40:39;17.50;99.90
19359;DHT22;9815;52.334;20.890;2022-08-27T02:43:07;17.40;99.90
19359;DHT22;9815;52.334;20.890;2022-08-27T02:45:41;17.40;99.90
19359;DHT22;9815;52.334;20.890;2022-08-27T02:48:11;17.40;99.90
19359;DHT22;9815;52.334;20.890;2022-08-27T02:50:39;17.40;99.90
19359;DHT22;9815;52.334;20.890;2022-08-27T02:53:09;17.40;99.90
19359;DHT22;9815;52.334;20.890;2022-08-27T02:55:37;17.30;99.90
19359;DHT22;9815;52.334;20.890;2022-08-27T02:58:06;17.30;99.90
19359;DHT22;9815;52.334;20.890;2022-08-27T03:00:35;17.20;99.90
19359;DHT22;9815;52.334;20.890;2022-08-27T03:03:03;17.20;99.90
19359;DHT22;9815;52.334;20.890;2022-08-27T03:05:33;17.20;99.90
19359;DHT22;9815;52.334;20.890;2022-08-27T03:08:02;17.20;99.90
19359;DHT22;9815;52.334;20.890;2022-08-27T03:10:31;17.10;99.90
19359;DHT22;9815;52.334;20.890;2022-08-27T03:12:59;17.00;99.90
19359;DHT22;9815;52.334;20.890;2022-08-27T03:15:27;16.90;99.90
19359;DHT22;9815;52.334;20.890;2022-08-27T03:17:56;16.90;99.90
19359;DHT22;9815;52.334;20.890;2022-08-27T03:20:45;17.00;99.90
19359;DHT22;9815;52.334;20.890;2022-08-27T03:23:15;16.90;99.90
19359;DHT22;9815;52.334;20.890;2022-08-27T03:25:45;16.90;99.90
19359;DHT22;9815;52.334;20.890;2022-08-27T03:28:18;16.90;99.90
19359;DHT22;9815;52.334;20.890;2022-08-27T03:30:50;17.00;99.90
19359;DHT22;9815;52.334;20.890;2022-08-27T03:33:19;17.00;99.90
19359;DHT22;9815;52.334;20.890;2022-08-27T03:35:49;17.00;99.90
19359;DHT22;9815;52.334;20.890;2022-08-27T03:38:18;16.90;99.90
19359;DHT22;9815;52.334;20.890;2022-08-27T03:40:47;16.90;99.90
19359;DHT22;9815;52.334;20.890;2022-08-27T03:43:16;16.80;99.90
19359;DHT22;9815;52.334;20.890;2022-08-27T03:45:47;16.80;99.90
19359;DHT22;9815;52.334;20.890;2022-08-27T03:48:29;16.80;99.90
19359;DHT22;9815;52.334;20.890;2022-08-27T03:51:03;16.80;99.90
19359;DHT22;9815;52.334;20.890;2022-08-27T03:53:33;16.80;99.90
19359;DHT22;9815;52.334;20.890;2022-08-27T03:56:01;16.70;99.90
19359;DHT22;9815;52.334;20.890;2022-08-27T03:58:30;16.70;99.90
19359;DHT22;9815;52.334;20.890;2022-08-27T04:00:58;16.70;99.90
19359;DHT22;9815;52.334;20.890;2022-08-27T04:03:26;16.80;99.90
19359;DHT22;9815;52.334;20.890;2022-08-27T04:05:56;16.90;99.90
19359;DHT22;9815;52.334;20.890;2022-08-27T04:08:26;16.90;99.90
19359;DHT22;9815;52.334;20.890;2022-08-27T04:10:55;16.90;99.90
19359;DHT22;9815;52.334;20.890;2022-08-27T04:13:23;16.90;99.90
19359;DHT22;9815;52.334;20.890;2022-08-27T04:15:52;17.00;99.90
19359;DHT22;9815;52.334;20.890;2022-08-27T04:18:21;17.00;99.90
19359;DHT22;9815;52.334;20.890;2022-08-27T04:20:50;17.00;99.90
19359;DHT22;9815;52.334;20.890;2022-08-27T04:23:19;17.10;99.90
19359;DHT22;9815;52.334;20.890;2022-08-27T04:25:49;17.10;99.90
19359;DHT22;9815;52.334;20.890;2022-08-27T04:28:17;17.00;99.90
19359;DHT22;9815;52.334;20.890;2022-08-27T04:30:46;17.10;99.90
19359;DHT22;9815;52.334;20.890;2022-08-27T04:33:14;17.10;99.90
19359;DHT22;9815;52.334;20.890;2022-08-27T04:35:42;17.10;99.90
19359;DHT22;9815;52.334;20.890;2022-08-27T04:38:11;17.10;99.90
19359;DHT22;9815;52.334;20.890;2022-08-27T04:40:39;17.10;99.90
19359;DHT22;9815;52.334;20.890;2022-08-27T04:43:27;17.10;99.90
19359;DHT22;9815;52.334;20.890;2022-08-27T04:45:55;17.10;99.90
19359;DHT22;9815;52.334;20.890;2022-08-27T04:48:23;17.20;99.90
19359;DHT22;9815;52.334;20.890;2022-08-27T04:50:53;17.20;99.90
19359;DHT22;9815;52.334;20.890;2022-08-27T04:53:21;17.30;99.90
19359;DHT22;9815;52.334;20.890;2022-08-27T04:55:52;17.20;99.90
19359;DHT22;9815;52.334;20.890;2022-08-27T04:58:32;17.20;99.90
19359;DHT22;9815;52.334;20.890;2022-08-27T05:01:00;17.20;99.90
19359;DHT22;9815;52.334;20.890;2022-08-27T05:03:29;17.30;99.90
19359;DHT22;9815;52.334;20.890;2022-08-27T05:06:00;17.40;99.90
19359;DHT22;9815;52.334;20.890;2022-08-27T05:08:30;17.50;99.90
19359;DHT22;9815;52.334;20.890;2022-08-27T05:10:59;17.50;99.90
19359;DHT22;9815;52.334;20.890;2022-08-27T05:13:28;17.60;99.90
19359;DHT22;9815;52.334;20.890;2022-08-27T05:15:59;17.70;99.90
19359;DHT22;9815;52.334;20.890;2022-08-27T05:18:39;17.80;99.90
19359;DHT22;9815;52.334;20.890;2022-08-27T05:21:19;17.80;99.90
19359;DHT22;9815;52.334;20.890;2022-08-27T05:23:48;17.90;99.90
19359;DHT22;9815;52.334;20.890;2022-08-27T05:26:20;17.90;99.90
19359;DHT22;9815;52.334;20.890;2022-08-27T05:28:52;18.00;99.90
19359;DHT22;9815;52.334;20.890;2022-08-27T05:31:26;18.10;99.90
19359;DHT22;9815;52.334;20.890;2022-08-27T05:33:59;18.10;99.90
19359;DHT22;9815;52.334;20.890;2022-08-27T05:36:36;18.20;99.90
19359;DHT22;9815;52.334;20.890;2022-08-27T05:39:15;18.30;99.90
19359;DHT22;9815;52.334;20.890;2022-08-27T05:41:44;18.30;99.90
19359;DHT22;9815;52.334;20.890;2022-08-27T05:44:13;18.40;99.90
19359;DHT22;9815;52.334;20.890;2022-08-27T05:47:05;18.50;99.90
19359;DHT22;9815;52.334;20.890;2022-08-27T05:49:34;18.60;99.90
19359;DHT22;9815;52.334;20.890;2022-08-27T05:52:07;18.70;99.90
19359;DHT22;9815;52.334;20.890;2022-08-27T05:54:37;18.80;99.90
19359;DHT22;9815;52.334;20.890;2022-08-27T05:57:06;18.80;99.90
19359;DHT22;9815;52.334;20.890;2022-08-27T05:59:36;18.90;99.90
19359;DHT22;9815;52.334;20.890;2022-08-27T06:02:23;18.90;99.90
19359;DHT22;9815;52.334;20.890;2022-08-27T06:04:55;19.00;99.90
19359;DHT22;9815;52.334;20.890;2022-08-27T06:07:24;19.10;99.90
19359;DHT22;9815;52.334;20.890;2022-08-27T06:09:59;19.20;99.90
19359;DHT22;9815;52.334;20.890;2022-08-27T06:12:28;19.40;99.90
19359;DHT22;9815;52.334;20.890;2022-08-27T06:14:56;19.50;99.90
19359;DHT22;9815;52.334;20.890;2022-08-27T06:17:28;19.50;99.90
19359;DHT22;9815;52.334;20.890;2022-08-27T06:19:56;19.60;99.90
19359;DHT22;9815;52.334;20.890;2022-08-27T06:22:24;19.80;99.90
19359;DHT22;9815;52.334;20.890;2022-08-27T06:24:53;19.80;99.90
19359;DHT22;9815;52.334;20.890;2022-08-27T06:27:21;19.80;99.90
19359;DHT22;9815;52.334;20.890;2022-08-27T06:29:49;19.90;99.90
19359;DHT22;9815;52.334;20.890;2022-08-27T06:32:18;19.90;99.90
19359;DHT22;9815;52.334;20.890;2022-08-27T06:34:48;20.00;99.90
19359;DHT22;9815;52.334;20.890;2022-08-27T06:37:16;20.10;99.90
19359;DHT22;9815;52.334;20.890;2022-08-27T06:39:44;20.10;99.90
19359;DHT22;9815;52.334;20.890;2022-08-27T06:42:13;20.20;99.90
19359;DHT22;9815;52.334;20.890;2022-08-27T06:44:41;20.20;99.90
19359;DHT22;9815;52.334;20.890;2022-08-27T06:47:16;20.10;99.90
19359;DHT22;9815;52.334;20.890;2022-08-27T06:49:48;20.10;99.90
19359;DHT22;9815;52.334;20.890;2022-08-27T06:52:16;20.10;99.90
19359;DHT22;9815;52.334;20.890;2022-08-27T06:54:45;20.10;99.90
19359;DHT22;9815;52.334;20.890;2022-08-27T06:57:14;20.10;99.90
19359;DHT22;9815;52.334;20.890;2022-08-27T06:59:43;20.20;99.90
19359;DHT22;9815;52.334;20.890;2022-08-27T07:02:19;20.30;99.90
19359;DHT22;9815;52.334;20.890;2022-08-27T07:04:57;20.50;99.90
19359;DHT22;9815;52.334;20.890;2022-08-27T07:07:31;20.60;99.90
19359;DHT22;9815;52.334;20.890;2022-08-27T07:10:13;20.90;99.90
19359;DHT22;9815;52.334;20.890;2022-08-27T07:12:47;21.10;99.90
19359;DHT22;9815;52.334;20.890;2022-08-27T07:15:19;21.20;99.90
19359;DHT22;9815;52.334;20.890;2022-08-27T07:17:54;21.40;99.90
19359;DHT22;9815;52.334;20.890;2022-08-27T07:20:27;21.30;99.90
19359;DHT22;9815;52.334;20.890;2022-08-27T07:22:58;21.40;99.40
19359;DHT22;9815;52.334;20.890;2022-08-27T07:25:26;21.40;99.80
19359;DHT22;9815;52.334;20.890;2022-08-27T07:27:57;21.70;98.90
19359;DHT22;9815;52.334;20.890;2022-08-27T07:30:27;21.70;99.00
19359;DHT22;9815;52.334;20.890;2022-08-27T07:32:58;21.80;97.90
19359;DHT22;9815;52.334;20.890;2022-08-27T07:35:36;21.90;99.90
19359;DHT22;9815;52.334;20.890;2022-08-27T07:38:11;21.90;99.60
19359;DHT22;9815;52.334;20.890;2022-08-27T07:40:42;22.10;96.60
19359;DHT22;9815;52.334;20.890;2022-08-27T07:43:22;22.20;96.70
19359;DHT22;9815;52.334;20.890;2022-08-27T07:46:24;22.50;93.60
19359;DHT22;9815;52.334;20.890;2022-08-27T07:48:56;22.70;94.30
19359;DHT22;9815;52.334;20.890;2022-08-27T07:51:27;22.90;90.80
19359;DHT22;9815;52.334;20.890;2022-08-27T07:53:59;23.10;90.40
19359;DHT22;9815;52.334;20.890;2022-08-27T07:56:27;23.30;90.10
19359;DHT22;9815;52.334;20.890;2022-08-27T07:58:55;23.40;92.90
19359;DHT22;9815;52.334;20.890;2022-08-27T08:01:25;23.60;93.10
19359;DHT22;9815;52.334;20.890;2022-08-27T08:03:54;23.70;88.50
19359;DHT22;9815;52.334;20.890;2022-08-27T08:06:23;23.90;88.50
19359;DHT22;9815;52.334;20.890;2022-08-27T08:09:03;24.00;82.20
19359;DHT22;9815;52.334;20.890;2022-08-27T08:11:37;24.30;88.40
19359;DHT22;9815;52.334;20.890;2022-08-27T08:14:06;24.40;77.70
19359;DHT22;9815;52.334;20.890;2022-08-27T08:16:35;24.60;79.80
19359;DHT22;9815;52.334;20.890;2022-08-27T08:19:06;24.70;81.00
19359;DHT22;9815;52.334;20.890;2022-08-27T08:21:39;24.80;76.70
19359;DHT22;9815;52.334;20.890;2022-08-27T08:24:10;24.90;76.70
19359;DHT22;9815;52.334;20.890;2022-08-27T08:26:38;25.00;76.40
19359;DHT22;9815;52.334;20.890;2022-08-27T08:29:08;25.20;79.10
19359;DHT22;9815;52.334;20.890;2022-08-27T08:31:45;25.30;76.30
19359;DHT22;9815;52.334;20.890;2022-08-27T08:34:17;25.40;73.70
19359;DHT22;9815;52.334;20.890;2022-08-27T08:36:46;25.60;73.10
19359;DHT22;9815;52.334;20.890;2022-08-27T08:39:22;25.80;69.90
19359;DHT22;9815;52.334;20.890;2022-08-27T08:41:53;25.90;69.60
19359;DHT22;9815;52.334;20.890;2022-08-27T08:44:27;26.00;65.00
19359;DHT22;9815;52.334;20.890;2022-08-27T08:47:03;26.10;67.30
19359;DHT22;9815;52.334;20.890;2022-08-27T08:49:43;26.30;63.10
19359;DHT22;9815;52.334;20.890;2022-08-27T08:52:22;26.50;66.60
19359;DHT22;9815;52.334;20.890;2022-08-27T08:55:06;26.70;59.10
19359;DHT22;9815;52.334;20.890;2022-08-27T08:57:40;26.70;56.90
19359;DHT22;9815;52.334;20.890;2022-08-27T09:00:11;26.80;58.60
19359;DHT22;9815;52.334;20.890;2022-08-27T09:02:46;26.80;55.20
19359;DHT22;9815;52.334;20.890;2022-08-27T09:05:19;27.10;57.60
19359;DHT22;9815;52.334;20.890;2022-08-27T09:08:00;27.30;62.50
19359;DHT22;9815;52.334;20.890;2022-08-27T09:10:57;27.50;56.40
19359;DHT22;9815;52.334;20.890;2022-08-27T09:13:28;27.80;55.60
19359;DHT22;9815;52.334;20.890;2022-08-27T09:16:06;27.90;52.10
19359;DHT22;9815;52.334;20.890;2022-08-27T09:18:40;28.00;53.70
19359;DHT22;9815;52.334;20.890;2022-08-27T09:21:30;28.10;51.60
19359;DHT22;9815;52.334;20.890;2022-08-27T09:24:10;28.40;50.00
19359;DHT22;9815;52.334;20.890;2022-08-27T09:26:43;28.60;49.00
19359;DHT22;9815;52.334;20.890;2022-08-27T09:29:16;28.90;51.60
19359;DHT22;9815;52.334;20.890;2022-08-27T09:31:53;29.20;50.90
19359;DHT22;9815;52.334;20.890;2022-08-27T09:34:23;29.30;49.50
19359;DHT22;9815;52.334;20.890;2022-08-27T09:37:03;29.40;50.10
19359;DHT22;9815;52.334;20.890;2022-08-27T09:42:35;29.90;47.10
19359;DHT22;9815;52.334;20.890;2022-08-27T09:45:18;30.10;47.30
19359;DHT22;9815;52.334;20.890;2022-08-27T09:47:49;30.30;47.50
19359;DHT22;9815;52.334;20.890;2022-08-27T09:50:20;30.70;46.40
19359;DHT22;9815;52.334;20.890;2022-08-27T09:52:54;30.70;44.30
19359;DHT22;9815;52.334;20.890;2022-08-27T09:55:36;30.90;42.80
19359;DHT22;9815;52.334;20.890;2022-08-27T09:58:17;30.70;43.80
19359;DHT22;9815;52.334;20.890;2022-08-27T10:00:56;30.60;45.20
19359;DHT22;9815;52.334;20.890;2022-08-27T10:03:26;30.80;43.20
19359;DHT22;9815;52.334;20.890;2022-08-27T10:05:59;31.30;43.60
19359;DHT22;9815;52.334;20.890;2022-08-27T10:08:34;31.50;42.60
19359;DHT22;9815;52.334;20.890;2022-08-27T10:11:11;31.90;40.90
19359;DHT22;9815;52.334;20.890;2022-08-27T10:13:51;31.90;39.50
19359;DHT22;9815;52.334;20.890;2022-08-27T10:16:40;31.90;42.40
19359;DHT22;9815;52.334;20.890;2022-08-27T10:19:24;32.30;40.60
19359;DHT22;9815;52.334;20.890;2022-08-27T10:22:01;32.10;40.80
19359;DHT22;9815;52.334;20.890;2022-08-27T10:24:42;31.90;41.00
19359;DHT22;9815;52.334;20.890;2022-08-27T10:27:20;31.90;39.70
19359;DHT22;9815;52.334;20.890;2022-08-27T10:30:03;32.10;42.20
19359;DHT22;9815;52.334;20.890;2022-08-27T10:32:49;32.00;40.60
19359;DHT22;9815;52.334;20.890;2022-08-27T10:35:23;32.10;40.30
19359;DHT22;9815;52.334;20.890;2022-08-27T10:38:03;32.30;38.00
19359;DHT22;9815;52.334;20.890;2022-08-27T10:40:40;32.30;38.70
19359;DHT22;9815;52.334;20.890;2022-08-27T10:46:23;32.60;38.20
19359;DHT22;9815;52.334;20.890;2022-08-27T10:49:05;33.20;37.40
19359;DHT22;9815;52.334;20.890;2022-08-27T10:51:45;33.20;35.50
19359;DHT22;9815;52.334;20.890;2022-08-27T10:54:30;32.80;36.10
19359;DHT22;9815;52.334;20.890;2022-08-27T10:57:06;32.80;36.50
19359;DHT22;9815;52.334;20.890;2022-08-27T11:00:03;33.10;36.80
19359;DHT22;9815;52.334;20.890;2022-08-27T11:02:40;33.20;37.50
19359;DHT22;9815;52.334;20.890;2022-08-27T11:05:15;33.30;37.30
19359;DHT22;9815;52.334;20.890;2022-08-27T11:07:46;33.40;36.40
19359;DHT22;9815;52.334;20.890;2022-08-27T11:10:22;33.40;37.20
19359;DHT22;9815;52.334;20.890;2022-08-27T11:12:54;33.50;36.40
19359;DHT22;9815;52.334;20.890;2022-08-27T11:15:26;34.00;36.20
19359;DHT22;9815;52.334;20.890;2022-08-27T11:18:02;34.30;35.10
19359;DHT22;9815;52.334;20.890;2022-08-27T11:20:42;34.10;35.40
19359;DHT22;9815;52.334;20.890;2022-08-27T11:23:15;34.00;35.00
19359;DHT22;9815;52.334;20.890;2022-08-27T11:25:48;33.90;33.70
19359;DHT22;9815;52.334;20.890;2022-08-27T11:28:19;33.80;34.30
19359;DHT22;9815;52.334;20.890;2022-08-27T11:31:00;33.60;35.60
19359;DHT22;9815;52.334;20.890;2022-08-27T11:33:35;33.90;34.80
19359;DHT22;9815;52.334;20.890;2022-08-27T11:42:24;34.30;33.70
19359;DHT22;9815;52.334;20.890;2022-08-27T11:44:58;34.10;33.10
19359;DHT22;9815;52.334;20.890;2022-08-27T11:47:31;33.80;32.40
19359;DHT22;9815;52.334;20.890;2022-08-27T11:50:15;34.10;33.30
19359;DHT22;9815;52.334;20.890;2022-08-27T11:52:58;34.30;34.10
19359;DHT22;9815;52.334;20.890;2022-08-27T11:55:30;34.60;33.70
19359;DHT22;9815;52.334;20.890;2022-08-27T11:58:06;34.80;34.60
19359;DHT22;9815;52.334;20.890;2022-08-27T12:00:37;34.20;31.90
19359;DHT22;9815;52.334;20.890;2022-08-27T12:03:08;34.30;28.40
19359;DHT22;9815;52.334;20.890;2022-08-27T12:05:41;34.40;31.20
19359;DHT22;9815;52.334;20.890;2022-08-27T12:08:14;34.20;29.30
19359;DHT22;9815;52.334;20.890;2022-08-27T12:10:57;34.40;29.50
19359;DHT22;9815;52.334;20.890;2022-08-27T12:13:33;34.50;30.00
19359;DHT22;9815;52.334;20.890;2022-08-27T12:16:13;34.60;28.50
19359;DHT22;9815;52.334;20.890;2022-08-27T12:19:00;34.70;28.40
19359;DHT22;9815;52.334;20.890;2022-08-27T12:21:43;34.60;29.10
19359;DHT22;9815;52.334;20.890;2022-08-27T12:24:40;34.40;28.90
19359;DHT22;9815;52.334;20.890;2022-08-27T12:27:30;34.40;29.20
19359;DHT22;9815;52.334;20.890;2022-08-27T12:30:04;34.80;28.10
19359;DHT22;9815;52.334;20.890;2022-08-27T12:32:39;34.80;28.20
19359;DHT22;9815;52.334;20.890;2022-08-27T12:35:13;35.10;28.10
19359;DHT22;9815;52.334;20.890;2022-08-27T12:37:46;35.40;26.10
19359;DHT22;9815;52.334;20.890;2022-08-27T12:40:21;35.10;27.40
19359;DHT22;9815;52.334;20.890;2022-08-27T12:42:51;35.10;28.20
19359;DHT22;9815;52.334;20.890;2022-08-27T12:45:30;35.10;28.70
19359;DHT22;9815;52.334;20.890;2022-08-27T12:47:58;35.20;27.20
19359;DHT22;9815;52.334;20.890;2022-08-27T12:50:28;34.80;28.20
19359;DHT22;9815;52.334;20.890;2022-08-27T12:53:20;34.50;28.20
19359;DHT22;9815;52.334;20.890;2022-08-27T12:58:54;33.30;28.00
19359;DHT22;9815;52.334;20.890;2022-08-27T13:01:35;33.10;29.70
19359;DHT22;9815;52.334;20.890;2022-08-27T13:04:18;32.90;29.60
19359;DHT22;9815;52.334;20.890;2022-08-27T13:06:47;33.00;30.50
19359;DHT22;9815;52.334;20.890;2022-08-27T13:09:25;33.10;30.80
19359;DHT22;9815;52.334;20.890;2022-08-27T13:11:55;33.50;27.40
19359;DHT22;9815;52.334;20.890;2022-08-27T13:14:27;33.90;28.30
19359;DHT22;9815;52.334;20.890;2022-08-27T13:16:58;34.20;26.90
19359;DHT22;9815;52.334;20.890;2022-08-27T13:19:32;34.50;26.00
19359;DHT22;9815;52.334;20.890;2022-08-27T13:22:01;34.50;25.90
19359;DHT22;9815;52.334;20.890;2022-08-27T13:24:35;34.80;27.50
19359;DHT22;9815;52.334;20.890;2022-08-27T13:27:05;34.80;27.80
19359;DHT22;9815;52.334;20.890;2022-08-27T13:29:33;34.40;29.00
19359;DHT22;9815;52.334;20.890;2022-08-27T13:32:02;34.30;26.80
19359;DHT22;9815;52.334;20.890;2022-08-27T13:34:33;34.40;26.70
19359;DHT22;9815;52.334;20.890;2022-08-27T13:37:04;34.40;26.30
19359;DHT22;9815;52.334;20.890;2022-08-27T13:39:36;34.50;26.90
19359;DHT22;9815;52.334;20.890;2022-08-27T13:42:06;34.60;27.10
19359;DHT22;9815;52.334;20.890;2022-08-27T13:44:37;34.80;28.40
19359;DHT22;9815;52.334;20.890;2022-08-27T13:47:09;34.50;27.40
19359;DHT22;9815;52.334;20.890;2022-08-27T13:49:41;33.90;29.00
19359;DHT22;9815;52.334;20.890;2022-08-27T13:52:21;34.20;27.60
19359;DHT22;9815;52.334;20.890;2022-08-27T13:54:58;34.40;27.50
19359;DHT22;9815;52.334;20.890;2022-08-27T13:57:27;34.60;28.00
19359;DHT22;9815;52.334;20.890;2022-08-27T14:00:07;34.30;27.80
19359;DHT22;9815;52.334;20.890;2022-08-27T14:02:37;34.40;26.80
19359;DHT22;9815;52.334;20.890;2022-08-27T14:05:10;34.60;27.50
19359;DHT22;9815;52.334;20.890;2022-08-27T14:07:42;34.60;27.70
19359;DHT22;9815;52.334;20.890;2022-08-27T14:10:29;34.50;27.20
19359;DHT22;9815;52.334;20.890;2022-08-27T14:13:00;34.60;28.00
19359;DHT22;9815;52.334;20.890;2022-08-27T14:15:33;34.40;28.40
19359;DHT22;9815;52.334;20.890;2022-08-27T14:18:04;34.40;29.00
19359;DHT22;9815;52.334;20.890;2022-08-27T14:20:33;34.30;28.40
19359;DHT22;9815;52.334;20.890;2022-08-27T14:23:02;34.40;27.50
19359;DHT22;9815;52.334;20.890;2022-08-27T14:25:32;34.50;27.20
19359;DHT22;9815;52.334;20.890;2022-08-27T14:28:01;34.50;27.50
19359;DHT22;9815;52.334;20.890;2022-08-27T14:30:33;34.60;27.70
19359;DHT22;9815;52.334;20.890;2022-08-27T14:33:01;34.50;26.90
19359;DHT22;9815;52.334;20.890;2022-08-27T14:35:31;34.50;27.30
19359;DHT22;9815;52.334;20.890;2022-08-27T14:38:09;34.20;28.40
19359;DHT22;9815;52.334;20.890;2022-08-27T14:40:41;33.90;28.80
19359;DHT22;9815;52.334;20.890;2022-08-27T14:43:11;33.70;29.10
19359;DHT22;9815;52.334;20.890;2022-08-27T14:45:42;33.40;29.00
19359;DHT22;9815;52.334;20.890;2022-08-27T14:48:16;33.10;28.90
19359;DHT22;9815;52.334;20.890;2022-08-27T14:50:45;33.30;29.00
19359;DHT22;9815;52.334;20.890;2022-08-27T14:53:14;33.10;29.30
19359;DHT22;9815;52.334;20.890;2022-08-27T14:55:44;33.10;29.60
19359;DHT22;9815;52.334;20.890;2022-08-27T14:58:18;32.70;29.50
19359;DHT22;9815;52.334;20.890;2022-08-27T15:00:46;32.80;30.00
19359;DHT22;9815;52.334;20.890;2022-08-27T15:03:15;32.80;30.40
19359;DHT22;9815;52.334;20.890;2022-08-27T15:05:45;32.60;30.40
19359;DHT22;9815;52.334;20.890;2022-08-27T15:08:14;32.30;30.60
19359;DHT22;9815;52.334;20.890;2022-08-27T15:10:44;32.00;31.50
19359;DHT22;9815;52.334;20.890;2022-08-27T15:13:12;31.90;32.10
19359;DHT22;9815;52.334;20.890;2022-08-27T15:15:41;31.50;33.90
19359;DHT22;9815;52.334;20.890;2022-08-27T15:18:09;31.20;34.30
19359;DHT22;9815;52.334;20.890;2022-08-27T15:20:39;31.00;35.20
19359;DHT22;9815;52.334;20.890;2022-08-27T15:23:08;30.70;36.10
19359;DHT22;9815;52.334;20.890;2022-08-27T15:25:38;30.50;35.70
19359;DHT22;9815;52.334;20.890;2022-08-27T15:28:07;30.30;35.20
19359;DHT22;9815;52.334;20.890;2022-08-27T15:30:36;30.20;36.50
19359;DHT22;9815;52.334;20.890;2022-08-27T15:33:05;30.00;37.30
19359;DHT22;9815;52.334;20.890;2022-08-27T15:35:33;29.80;38.70
19359;DHT22;9815;52.334;20.890;2022-08-27T15:38:02;29.80;38.80
19359;DHT22;9815;52.334;20.890;2022-08-27T15:40:32;29.70;37.50
19359;DHT22;9815;52.334;20.890;2022-08-27T15:43:04;29.60;36.90
19359;DHT22;9815;52.334;20.890;2022-08-27T15:45:35;29.40;36.70
19359;DHT22;9815;52.334;20.890;2022-08-27T15:48:03;29.40;40.70
19359;DHT22;9815;52.334;20.890;2022-08-27T15:50:32;29.20;39.10
19359;DHT22;9815;52.334;20.890;2022-08-27T15:53:03;29.10;39.40
19359;DHT22;9815;52.334;20.890;2022-08-27T15:55:35;28.90;38.90
19359;DHT22;9815;52.334;20.890;2022-08-27T15:58:04;28.80;41.00
19359;DHT22;9815;52.334;20.890;2022-08-27T16:00:36;28.70;40.00
19359;DHT22;9815;52.334;20.890;2022-08-27T16:03:09;28.60;40.80
19359;DHT22;9815;52.334;20.890;2022-08-27T16:05:39;28.60;38.40
19359;DHT22;9815;52.334;20.890;2022-08-27T16:08:09;28.60;39.70
19359;DHT22;9815;52.334;20.890;2022-08-27T16:10:38;28.50;39.10
19359;DHT22;9815;52.334;20.890;2022-08-27T16:13:06;28.30;39.80
19359;DHT22;9815;52.334;20.890;2022-08-27T16:15:38;28.20;39.50
19359;DHT22;9815;52.334;20.890;2022-08-27T16:18:07;28.10;40.90